createdAt,value
2019-03-28T00:00:31.333Z,99.90
2019-03-28T00:03:00.797Z,99.90
2019-03-28T00:05:49.626Z,99.90
2019-03-28T00:08:19.092Z,99.90
2019-03-28T00:10:48.566Z,99.90
2019-03-28T00:13:18.062Z,99.90
2019-03-28T00:15:47.629Z,99.90
2019-03-28T00:18:17.094Z,99.90
2019-03-28T00:20:46.648Z,99.90
2019-03-28T00:23:20.648Z,99.90
2019-03-28T00:25:50.113Z,99.90
2019-03-28T00:28:19.616Z,99.90
2019-03-28T00:30:49.214Z,99.90
2019-03-28T00:33:18.596Z,99.90
2019-03-28T00:35:48.088Z,99.90
2019-03-28T00:38:17.486Z,99.90
2019-03-28T00:40:46.948Z,99.90
2019-03-28T00:43:16.429Z,99.90
2019-03-28T00:45:45.915Z,99.90
2019-03-28T00:48:15.406Z,99.90
2019-03-28T00:50:44.873Z,99.90
2019-03-28T00:53:14.339Z,99.90
2019-03-28T00:55:43.834Z,99.90
2019-03-28T00:58:13.302Z,99.90
2019-03-28T01:00:42.780Z,99.90
2019-03-28T01:03:12.287Z,99.90
2019-03-28T01:05:42.243Z,99.90
2019-03-28T01:08:12.208Z,99.90
2019-03-28T01:10:43.621Z,99.90
2019-03-28T01:13:13.093Z,99.90
2019-03-28T01:15:42.661Z,99.90
2019-03-28T01:18:12.148Z,99.90
2019-03-28T01:20:41.567Z,99.90
2019-03-28T01:23:10.959Z,99.90
2019-03-28T01:25:40.300Z,99.90
2019-03-28T01:28:09.721Z,99.90
2019-03-28T01:30:39.017Z,99.90
2019-03-28T01:33:08.341Z,99.90
2019-03-28T01:35:37.836Z,99.90
2019-03-28T01:38:07.029Z,99.90
2019-03-28T01:40:36.353Z,99.90
2019-03-28T01:43:05.706Z,99.90
2019-03-28T01:45:34.894Z,99.90
2019-03-28T01:48:04.222Z,99.90
2019-03-28T01:50:33.581Z,99.90
2019-03-28T01:53:03.107Z,99.90
2019-03-28T01:55:32.672Z,99.90
2019-03-28T01:58:02.249Z,99.90
2019-03-28T02:00:32.572Z,99.90
2019-03-28T02:03:01.894Z,99.90
2019-03-28T02:05:31.196Z,99.90
2019-03-28T02:08:02.777Z,99.90
2019-03-28T02:10:31.697Z,99.90
2019-03-28T02:13:01.202Z,99.90
2019-03-28T02:15:30.662Z,99.90
2019-03-28T02:18:00.155Z,99.90
2019-03-28T02:20:29.680Z,99.90
2019-03-28T02:22:59.579Z,99.90
2019-03-28T02:25:29.065Z,99.90
2019-03-28T02:27:58.590Z,99.90
2019-03-28T02:30:32.906Z,99.90
2019-03-28T02:33:02.389Z,99.90
2019-03-28T02:35:31.866Z,99.90
2019-03-28T02:38:01.359Z,99.90
2019-03-28T02:40:30.834Z,99.90
2019-03-28T02:43:00.343Z,99.90
2019-03-28T02:45:30.069Z,99.90
2019-03-28T02:47:59.757Z,99.90
2019-03-28T02:50:29.243Z,99.90
2019-03-28T02:52:58.713Z,99.90
2019-03-28T02:55:28.184Z,99.90
2019-03-28T02:57:57.732Z,99.90
2019-03-28T03:00:27.373Z,99.90
2019-03-28T03:02:57.106Z,99.90
2019-03-28T03:05:26.574Z,99.90
2019-03-28T03:07:56.045Z,99.90
2019-03-28T03:10:25.513Z,99.90
2019-03-28T03:12:55.028Z,99.90
2019-03-28T03:15:24.498Z,99.90
2019-03-28T03:17:53.985Z,99.90
2019-03-28T03:20:26.486Z,99.90
2019-03-28T03:22:55.994Z,99.90
2019-03-28T03:25:25.464Z,99.90
2019-03-28T03:27:58.470Z,99.90
2019-03-28T03:30:45.529Z,99.90
2019-03-28T03:33:15.028Z,99.90
2019-03-28T03:35:44.489Z,99.90
2019-03-28T03:38:14.054Z,99.90
2019-03-28T03:40:43.550Z,99.90
2019-03-28T03:43:13.019Z,99.90
2019-03-28T03:45:42.641Z,99.90
2019-03-28T03:48:12.291Z,99.90
2019-03-28T03:50:41.895Z,99.90
2019-03-28T03:53:11.376Z,99.90
2019-03-28T03:55:40.903Z,99.90
2019-03-28T03:58:16.164Z,99.90
2019-03-28T04:00:43.418Z,99.90
2019-03-28T04:03:12.935Z,99.90
2019-03-28T04:05:42.402Z,99.90
2019-03-28T04:08:11.877Z,99.90
2019-03-28T04:10:41.378Z,99.90
2019-03-28T04:13:11.092Z,99.90
2019-03-28T04:15:40.714Z,99.90
2019-03-28T04:18:10.229Z,99.90
2019-03-28T04:20:39.690Z,99.90
2019-03-28T04:23:09.159Z,99.90
2019-03-28T04:25:39.773Z,99.90
2019-03-28T04:28:09.517Z,99.90
2019-03-28T04:30:38.989Z,99.90
2019-03-28T04:33:08.496Z,99.90
2019-03-28T04:35:39.507Z,99.90
2019-03-28T04:38:10.170Z,99.90
2019-03-28T04:40:39.653Z,99.90
2019-03-28T04:43:09.118Z,99.90
2019-03-28T04:45:38.613Z,99.90
2019-03-28T04:48:08.083Z,99.90
2019-03-28T04:50:37.544Z,99.90
2019-03-28T04:53:07.109Z,99.90
2019-03-28T04:55:36.594Z,99.90
2019-03-28T04:58:06.061Z,99.90
2019-03-28T05:00:35.590Z,99.90
2019-03-28T05:03:05.062Z,99.90
2019-03-28T05:05:34.536Z,99.90
2019-03-28T05:08:04.024Z,99.90
2019-03-28T05:10:33.502Z,99.90
2019-03-28T05:13:02.981Z,99.90
2019-03-28T05:15:32.481Z,99.90
2019-03-28T05:18:01.968Z,99.90
2019-03-28T05:20:31.440Z,99.90
2019-03-28T05:23:00.935Z,99.90
2019-03-28T05:25:30.399Z,99.90
2019-03-28T05:27:59.855Z,99.90
2019-03-28T05:30:29.656Z,99.90
2019-03-28T05:32:59.127Z,99.90
2019-03-28T05:35:28.609Z,99.90
2019-03-28T05:37:58.082Z,99.90
2019-03-28T05:40:27.544Z,99.90
2019-03-28T05:42:57.032Z,99.90
2019-03-28T05:45:47.603Z,99.90
2019-03-28T05:48:17.190Z,99.90
2019-03-28T05:50:46.648Z,99.90
2019-03-28T05:53:16.144Z,99.90
2019-03-28T05:55:45.602Z,99.90
2019-03-28T05:58:15.111Z,99.90
2019-03-28T06:00:44.714Z,99.90
2019-03-28T06:03:14.279Z,99.90
2019-03-28T06:05:43.839Z,99.90
2019-03-28T06:08:13.306Z,99.90
2019-03-28T06:10:42.777Z,99.90
2019-03-28T06:13:12.297Z,99.90
2019-03-28T06:15:41.767Z,99.90
2019-03-28T06:18:11.240Z,99.90
2019-03-28T06:20:40.740Z,99.90
2019-03-28T06:23:10.218Z,99.90
2019-03-28T06:25:41.005Z,99.90
2019-03-28T06:28:10.559Z,99.90
2019-03-28T06:30:40.056Z,99.90
2019-03-28T06:33:09.592Z,99.90
2019-03-28T06:35:39.113Z,99.90
2019-03-28T06:38:08.585Z,99.90
2019-03-28T06:40:38.047Z,99.90
2019-03-28T06:43:07.560Z,99.90
2019-03-28T06:45:37.044Z,99.90
2019-03-28T06:48:06.514Z,99.90
2019-03-28T06:50:36.030Z,99.90
2019-03-28T06:53:05.465Z,99.90
2019-03-28T06:55:36.905Z,99.90
2019-03-28T06:58:06.167Z,99.90
2019-03-28T07:00:35.738Z,99.90
2019-03-28T07:03:05.206Z,99.90
2019-03-28T07:05:34.739Z,99.90
2019-03-28T07:08:04.177Z,99.90
2019-03-28T07:10:33.701Z,99.90
2019-03-28T07:13:03.333Z,99.90
2019-03-28T07:15:32.837Z,99.90
2019-03-28T07:18:02.316Z,99.90
2019-03-28T07:20:31.825Z,99.90
2019-03-28T07:23:01.259Z,99.90
2019-03-28T07:25:30.922Z,99.90
2019-03-28T07:28:00.312Z,99.90
2019-03-28T07:30:29.824Z,99.90
2019-03-28T07:32:59.278Z,99.90
2019-03-28T07:35:28.755Z,99.90
2019-03-28T07:37:58.256Z,99.90
2019-03-28T07:40:27.782Z,99.90
2019-03-28T07:42:57.216Z,99.90
2019-03-28T07:45:27.526Z,99.90
2019-03-28T07:47:57.197Z,99.90
2019-03-28T07:50:26.627Z,99.90
2019-03-28T07:52:56.083Z,99.90
2019-03-28T07:55:25.580Z,99.90
2019-03-28T07:57:55.072Z,99.90
2019-03-28T08:00:24.535Z,99.90
2019-03-28T08:02:54.618Z,99.90
2019-03-28T08:05:24.326Z,99.90
2019-03-28T08:07:53.780Z,99.90
2019-03-28T08:10:23.891Z,99.90
2019-03-28T08:12:53.369Z,99.90
2019-03-28T08:15:22.849Z,99.90
2019-03-28T08:17:52.288Z,99.90
2019-03-28T08:20:21.718Z,99.90
2019-03-28T08:22:51.239Z,99.90
2019-03-28T08:25:20.702Z,99.90
2019-03-28T08:27:50.213Z,99.90
2019-03-28T08:30:35.600Z,99.90
2019-03-28T08:33:06.473Z,99.90
2019-03-28T08:35:37.136Z,99.90
2019-03-28T08:38:09.947Z,99.90
2019-03-28T08:40:40.535Z,99.90
2019-03-28T08:43:10.008Z,99.90
2019-03-28T08:45:39.530Z,99.90
2019-03-28T08:48:09.021Z,99.90
2019-03-28T08:50:38.486Z,99.90
2019-03-28T08:53:08.003Z,99.90
2019-03-28T08:55:37.515Z,99.90
2019-03-28T08:58:07.120Z,99.90
2019-03-28T09:03:23.719Z,99.90
2019-03-28T09:05:53.243Z,99.90
2019-03-28T09:08:22.721Z,99.90
2019-03-28T09:10:52.194Z,99.80
2019-03-28T09:16:09.421Z,99.10
2019-03-28T09:21:25.938Z,99.60
2019-03-28T09:23:55.449Z,99.00
2019-03-28T09:26:24.861Z,99.10
2019-03-28T09:28:54.336Z,99.10
2019-03-28T09:31:23.831Z,98.70
2019-03-28T09:33:53.301Z,98.40
2019-03-28T09:36:22.809Z,98.50
2019-03-28T09:38:52.290Z,98.00
2019-03-28T09:41:21.764Z,97.10
2019-03-28T09:43:55.524Z,95.80
2019-03-28T09:46:22.465Z,95.60
2019-03-28T09:48:51.948Z,95.40
2019-03-28T09:51:21.435Z,95.40
2019-03-28T09:53:50.920Z,95.20
2019-03-28T09:56:20.405Z,94.50
2019-03-28T09:58:49.914Z,94.10
2019-03-28T10:01:19.390Z,94.00
2019-03-28T10:03:48.862Z,94.20
2019-03-28T10:06:18.363Z,93.80
2019-03-28T10:08:48.014Z,93.50
2019-03-28T10:11:17.542Z,92.80
2019-03-28T10:13:47.046Z,92.90
2019-03-28T10:16:16.509Z,92.80
2019-03-28T10:18:46.889Z,92.80
2019-03-28T10:21:16.684Z,91.80
2019-03-28T10:23:46.166Z,91.60
2019-03-28T10:26:15.619Z,91.40
2019-03-28T10:28:45.137Z,90.40
2019-03-28T10:31:16.666Z,89.70
2019-03-28T10:33:46.392Z,90.10
2019-03-28T10:36:15.974Z,89.70
2019-03-28T10:38:45.452Z,89.30
2019-03-28T10:41:14.929Z,88.70
2019-03-28T10:43:44.345Z,88.80
2019-03-28T10:46:13.826Z,88.70
2019-03-28T10:48:43.280Z,87.20
2019-03-28T10:51:12.804Z,86.40
2019-03-28T10:53:42.287Z,86.00
2019-03-28T10:56:21.523Z,86.40
2019-03-28T10:58:43.595Z,85.80
2019-03-28T11:01:16.426Z,84.90
2019-03-28T11:03:44.295Z,84.30
2019-03-28T11:06:13.853Z,82.90
2019-03-28T11:08:43.328Z,83.20
2019-03-28T11:11:12.819Z,82.90
2019-03-28T11:13:42.495Z,81.30
2019-03-28T11:16:14.915Z,80.30
2019-03-28T11:18:43.245Z,79.50
2019-03-28T11:21:12.735Z,79.60
2019-03-28T11:23:42.182Z,79.40
2019-03-28T11:26:11.888Z,79.50
2019-03-28T11:28:42.247Z,79.10
2019-03-28T11:31:11.823Z,78.00
2019-03-28T11:33:41.340Z,78.10
2019-03-28T11:36:10.808Z,79.70
2019-03-28T11:38:40.285Z,78.40
2019-03-28T11:41:09.781Z,78.40
2019-03-28T11:43:39.534Z,78.90
2019-03-28T11:46:21.774Z,78.30
2019-03-28T11:48:51.242Z,78.50
2019-03-28T11:51:20.704Z,76.90
2019-03-28T11:53:50.212Z,77.50
2019-03-28T11:56:19.687Z,76.70
2019-03-28T11:58:49.159Z,76.30
2019-03-28T12:01:18.664Z,77.10
2019-03-28T12:03:48.172Z,76.80
2019-03-28T12:06:17.634Z,75.70
2019-03-28T12:08:47.243Z,74.90
2019-03-28T12:11:16.713Z,74.70
2019-03-28T12:13:46.180Z,74.80
2019-03-28T12:16:15.780Z,73.50
2019-03-28T12:18:45.247Z,72.00
2019-03-28T12:21:14.795Z,69.10
2019-03-28T12:23:44.306Z,69.00
2019-03-28T12:26:13.802Z,66.90
2019-03-28T12:28:43.275Z,63.00
2019-03-28T12:31:12.777Z,58.50
2019-03-28T12:33:42.364Z,55.70
2019-03-28T12:36:11.936Z,54.60
2019-03-28T12:38:41.441Z,55.60
2019-03-28T12:41:10.910Z,54.10
2019-03-28T12:43:40.392Z,52.90
2019-03-28T12:46:09.885Z,52.70
2019-03-28T12:48:39.353Z,52.90
2019-03-28T12:51:08.841Z,52.50
2019-03-28T12:53:38.338Z,53.60
2019-03-28T12:56:07.805Z,53.50
2019-03-28T12:58:37.220Z,54.40
2019-03-28T13:01:06.694Z,55.20
2019-03-28T13:03:45.434Z,55.80
2019-03-28T13:06:07.393Z,55.00
2019-03-28T13:08:36.876Z,50.70
2019-03-28T13:11:06.338Z,47.90
2019-03-28T13:13:35.842Z,47.50
2019-03-28T13:16:05.589Z,47.70
2019-03-28T13:18:36.164Z,47.70
2019-03-28T13:21:13.523Z,44.00
2019-03-28T13:23:37.061Z,40.00
2019-03-28T13:26:06.529Z,38.30
2019-03-28T13:28:36.098Z,37.90
2019-03-28T13:31:05.581Z,39.60
2019-03-28T13:33:35.058Z,40.90
2019-03-28T13:36:04.557Z,41.10
2019-03-28T13:38:34.180Z,40.10
2019-03-28T13:41:03.641Z,38.40
2019-03-28T13:43:34.110Z,39.60
2019-03-28T13:46:03.581Z,38.00
2019-03-28T13:48:33.060Z,39.80
2019-03-28T13:51:02.546Z,41.70
2019-03-28T13:53:39.321Z,43.20
2019-03-28T13:56:03.298Z,45.10
2019-03-28T13:58:32.796Z,46.00
2019-03-28T14:01:02.269Z,46.90
2019-03-28T14:03:31.794Z,48.00
2019-03-28T14:06:01.307Z,48.60
2019-03-28T14:08:30.776Z,47.90
2019-03-28T14:11:00.376Z,44.60
2019-03-28T14:13:29.855Z,40.70
2019-03-28T14:15:59.428Z,39.10
2019-03-28T14:18:30.806Z,39.50
2019-03-28T14:21:00.310Z,41.70
2019-03-28T14:23:29.778Z,42.90
2019-03-28T14:25:59.254Z,43.60
2019-03-28T14:28:28.758Z,43.30
2019-03-28T14:31:00.763Z,41.10
2019-03-28T14:33:29.431Z,40.60
2019-03-28T14:35:58.941Z,37.80
2019-03-28T14:38:28.424Z,35.60
2019-03-28T14:40:58.446Z,33.40
2019-03-28T14:43:28.079Z,33.90
2019-03-28T14:45:57.545Z,35.80
2019-03-28T14:48:27.112Z,36.60
2019-03-28T14:50:56.773Z,36.80
2019-03-28T14:53:26.367Z,36.30
2019-03-28T14:55:55.941Z,36.70
2019-03-28T14:58:25.453Z,37.90
2019-03-28T15:00:55.241Z,38.40
2019-03-28T15:03:26.692Z,38.40
2019-03-28T15:05:55.950Z,38.40
2019-03-28T15:08:25.429Z,39.10
2019-03-28T15:10:54.910Z,38.80
2019-03-28T15:13:24.403Z,37.50
2019-03-28T15:15:53.892Z,37.70
2019-03-28T15:18:23.412Z,37.10
2019-03-28T15:20:52.938Z,38.10
2019-03-28T15:23:22.489Z,38.80
2019-03-28T15:25:51.968Z,38.90
2019-03-28T15:28:21.469Z,38.30
2019-03-28T15:30:50.942Z,38.60
2019-03-28T15:33:20.410Z,37.60
2019-03-28T15:35:49.906Z,37.10
2019-03-28T15:38:19.379Z,37.90
2019-03-28T15:40:48.899Z,38.90
2019-03-28T15:43:18.398Z,40.10
2019-03-28T15:45:47.865Z,41.30
2019-03-28T15:48:17.381Z,42.70
2019-03-28T15:50:46.866Z,43.10
2019-03-28T15:53:16.357Z,44.30
2019-03-28T15:55:45.848Z,44.80
2019-03-28T15:58:23.105Z,45.50
2019-03-28T16:00:46.544Z,46.40
2019-03-28T16:03:16.051Z,46.80
2019-03-28T16:06:04.895Z,47.00
2019-03-28T16:08:34.395Z,47.40
2019-03-28T16:11:03.864Z,47.60
2019-03-28T16:13:33.278Z,48.20
2019-03-28T16:16:02.778Z,48.60
2019-03-28T16:18:32.263Z,49.10
2019-03-28T16:21:01.770Z,49.20
2019-03-28T16:23:31.344Z,49.40
2019-03-28T16:26:00.855Z,49.70
2019-03-28T16:28:30.346Z,50.00
2019-03-28T16:31:00.137Z,50.50
2019-03-28T16:33:29.953Z,50.70
2019-03-28T16:35:59.494Z,51.00
2019-03-28T16:38:29.012Z,51.60
2019-03-28T16:40:58.543Z,52.40
2019-03-28T16:43:28.281Z,52.90
2019-03-28T16:45:57.891Z,52.80
2019-03-28T16:48:47.096Z,53.10
2019-03-28T16:51:17.633Z,53.30
2019-03-28T16:53:47.577Z,53.60
2019-03-28T16:56:17.067Z,53.90
2019-03-28T16:58:46.563Z,54.30
2019-03-28T17:01:16.041Z,54.60
2019-03-28T17:03:45.874Z,54.70
2019-03-28T17:06:15.401Z,54.90
2019-03-28T17:08:45.570Z,55.30
2019-03-28T17:11:15.059Z,55.30
2019-03-28T17:13:46.282Z,55.50
2019-03-28T17:16:16.729Z,55.80
2019-03-28T17:18:46.464Z,56.10
2019-03-28T17:21:15.982Z,56.10
2019-03-28T17:23:45.448Z,56.30
2019-03-28T17:26:14.922Z,56.30
2019-03-28T17:28:44.529Z,56.50
2019-03-28T17:31:14.005Z,57.30
2019-03-28T17:33:43.448Z,57.10
2019-03-28T17:36:13.170Z,57.10
2019-03-28T17:38:42.703Z,57.30
2019-03-28T17:41:12.219Z,57.50
2019-03-28T17:43:42.093Z,57.70
2019-03-28T17:46:12.515Z,57.50
2019-03-28T17:48:42.302Z,57.70
2019-03-28T17:51:11.879Z,57.80
2019-03-28T17:53:41.645Z,57.90
2019-03-28T17:56:11.240Z,58.70
2019-03-28T17:58:40.743Z,58.70
2019-03-28T18:01:10.441Z,58.70
2019-03-28T18:03:39.895Z,59.20
2019-03-28T18:06:09.389Z,59.60
2019-03-28T18:08:38.881Z,59.70
2019-03-28T18:11:08.349Z,60.10
2019-03-28T18:13:37.867Z,60.30
2019-03-28T18:16:07.681Z,60.10
2019-03-28T18:18:37.405Z,60.70
2019-03-28T18:21:06.899Z,60.50
2019-03-28T18:23:36.363Z,60.60
2019-03-28T18:26:05.849Z,60.80
2019-03-28T18:28:35.791Z,61.10
2019-03-28T18:31:05.456Z,61.40
2019-03-28T18:33:35.132Z,61.60
2019-03-28T18:36:04.650Z,61.50
2019-03-28T18:38:34.118Z,61.70
2019-03-28T18:41:03.895Z,61.70
2019-03-28T18:43:33.362Z,62.00
2019-03-28T18:46:02.860Z,61.90
2019-03-28T18:48:36.383Z,62.20
2019-03-28T18:51:03.576Z,63.00
2019-03-28T18:53:33.033Z,63.80
2019-03-28T18:56:02.536Z,63.50
2019-03-28T18:58:32.048Z,63.40
2019-03-28T19:01:01.499Z,63.60
2019-03-28T19:03:31.011Z,63.50
2019-03-28T19:06:00.509Z,64.10
2019-03-28T19:08:29.991Z,64.50
2019-03-28T19:10:59.463Z,64.70
2019-03-28T19:13:28.995Z,65.00
2019-03-28T19:15:58.479Z,65.50
2019-03-28T19:18:27.977Z,65.70
2019-03-28T19:20:58.039Z,66.30
2019-03-28T19:23:28.324Z,67.10
2019-03-28T19:25:57.796Z,67.70
2019-03-28T19:28:36.691Z,68.10
2019-03-28T19:31:06.750Z,68.30
2019-03-28T19:33:38.226Z,68.60
2019-03-28T19:36:10.187Z,68.10
2019-03-28T19:38:39.742Z,68.00
2019-03-28T19:41:09.239Z,68.30
2019-03-28T19:43:39.047Z,68.90
2019-03-28T19:46:08.628Z,69.10
2019-03-28T19:48:38.154Z,69.70
2019-03-28T19:51:07.930Z,69.80
2019-03-28T19:53:37.663Z,70.00
2019-03-28T19:56:07.161Z,70.40
2019-03-28T19:58:36.652Z,71.60
2019-03-28T20:01:06.126Z,71.50
2019-03-28T20:03:35.675Z,71.60
2019-03-28T20:06:05.179Z,71.80
2019-03-28T20:08:34.660Z,71.50
2019-03-28T20:11:04.195Z,71.80
2019-03-28T20:13:33.710Z,72.60
2019-03-28T20:16:03.191Z,73.20
2019-03-28T20:18:32.731Z,73.60
2019-03-28T20:21:02.205Z,73.70
2019-03-28T20:23:31.693Z,74.70
2019-03-28T20:26:01.201Z,74.30
2019-03-28T20:28:30.728Z,74.60
2019-03-28T20:31:00.206Z,75.40
2019-03-28T20:33:29.719Z,75.90
2019-03-28T20:36:18.714Z,76.00
2019-03-28T20:38:30.633Z,76.20
2019-03-28T20:41:00.271Z,76.50
2019-03-28T20:43:29.818Z,77.00
2019-03-28T20:45:59.294Z,77.50
2019-03-28T20:48:28.819Z,78.30
2019-03-28T20:50:58.291Z,78.70
2019-03-28T20:53:27.757Z,79.70
2019-03-28T20:55:57.253Z,80.30
2019-03-28T20:58:26.845Z,80.40
2019-03-28T21:00:56.523Z,80.90
2019-03-28T21:03:26.119Z,81.60
2019-03-28T21:05:55.685Z,82.70
2019-03-28T21:08:25.166Z,83.10
2019-03-28T21:10:54.686Z,83.50
2019-03-28T21:13:24.175Z,84.20
2019-03-28T21:15:53.654Z,84.80
2019-03-28T21:18:23.163Z,85.30
2019-03-28T21:20:52.636Z,85.60
2019-03-28T21:23:22.131Z,86.00
2019-03-28T21:25:51.711Z,86.60
2019-03-28T21:28:21.189Z,87.10
2019-03-28T21:30:50.683Z,87.20
2019-03-28T21:33:20.188Z,87.70
2019-03-28T21:35:49.692Z,88.30
2019-03-28T21:38:19.163Z,89.80
2019-03-28T21:40:48.663Z,89.60
2019-03-28T21:43:18.245Z,90.20
2019-03-28T21:45:47.718Z,90.30
2019-03-28T21:48:17.219Z,90.50
2019-03-28T21:50:46.714Z,90.80
2019-03-28T21:53:16.285Z,91.00
2019-03-28T21:55:54.970Z,91.20
2019-03-28T21:58:16.987Z,91.70
2019-03-28T22:00:46.468Z,91.70
2019-03-28T22:03:16.892Z,91.80
2019-03-28T22:05:46.580Z,92.00
2019-03-28T22:08:16.074Z,92.70
2019-03-28T22:10:45.571Z,92.60
2019-03-28T22:13:15.036Z,92.70
2019-03-28T22:15:44.519Z,92.70
2019-03-28T22:18:14.034Z,93.00
2019-03-28T22:20:43.846Z,93.30
2019-03-28T22:23:14.074Z,93.60
2019-03-28T22:25:43.585Z,93.90
2019-03-28T22:28:13.047Z,94.20
2019-03-28T22:30:42.530Z,94.40
2019-03-28T22:33:12.074Z,94.80
2019-03-28T22:35:41.559Z,95.00
2019-03-28T22:38:11.037Z,95.30
2019-03-28T22:40:43.682Z,95.60
2019-03-28T22:43:11.851Z,95.90
2019-03-28T22:45:41.422Z,96.10
2019-03-28T22:48:12.398Z,96.10
2019-03-28T22:50:42.256Z,96.40
2019-03-28T22:53:11.728Z,96.40
2019-03-28T22:55:41.294Z,96.60
2019-03-28T22:58:10.804Z,96.80
2019-03-28T23:00:47.694Z,96.90
2019-03-28T23:03:17.774Z,97.20
2019-03-28T23:05:47.232Z,97.60
2019-03-28T23:08:16.853Z,98.10
2019-03-28T23:10:46.322Z,98.60
2019-03-28T23:13:15.814Z,98.80
2019-03-28T23:15:45.328Z,99.50
2019-03-28T23:18:14.797Z,99.90
2019-03-28T23:20:44.278Z,99.90
2019-03-28T23:23:13.792Z,99.90
2019-03-28T23:25:43.253Z,99.90
2019-03-28T23:28:12.741Z,99.90
2019-03-28T23:30:42.250Z,99.90
2019-03-28T23:33:11.776Z,99.90
2019-03-28T23:35:41.263Z,99.90
2019-03-28T23:38:10.753Z,99.90
2019-03-28T23:40:40.217Z,99.90
2019-03-28T23:43:09.932Z,99.90
2019-03-28T23:45:39.665Z,99.90
2019-03-28T23:48:09.187Z,99.90
2019-03-28T23:50:38.681Z,99.90
2019-03-28T23:53:08.801Z,99.90
2019-03-28T23:55:38.612Z,99.90
2019-03-28T23:58:08.105Z,99.90
